< < Back
Terminal Aerodrome Forecast


Current Version              Previous Versions:   1  2  3  4  5  6  7  8  9  

Terminal Aerodrome Forecast

142
FTUS42 KFFC 302300
TAFCSG
TAF
KCSG 302322Z 0100/0124 VRB03KT P6SM FEW050
     FM011000 00000KT 2SM BR SCT008
     FM011400 23005KT P6SM SCT040=



Latest METAR

601
SAUS70 KWBC 011754
MTRCSG
METAR KCSG 011751Z VRB03KT 10SM SCT045 28/18 A2999 RMK AO2 SLP150
T02780178 10278 20167 58007


USA.gov is the U.S. government's official web portal to all federal, state and local government web resources and services.